Time;durP1;ratioP1;P1;durP2;ratioP2;P2;SDS_P1;SDS_P2;PMS_P1;PMS_P2;Temp;Humidity;BMP_temperature;BMP_pressure;BME280_temperature;BME280_humidity;BME280_pressure;Samples;Min_cycle;Max_cycle;Signal;HPM_P1;HPM_P2
2022/09/13 00:00:27;;;;;;;;;;;17.50;99.90;;;;;;5073352;28;20372;-64
2022/09/13 00:02:53;;;;;;;;;;;17.60;99.90;;;;;;5072780;28;20266;-66
2022/09/13 00:05:18;;;;;;;;;;;17.50;99.90;;;;;;5072887;28;19908;-65
2022/09/13 00:07:44;;;;;;;;;;;17.60;99.90;;;;;;5072833;28;19905;-65
2022/09/13 00:10:09;;;;;;;;;;;17.60;99.90;;;;;;5073226;28;19908;-66
2022/09/13 00:12:34;;;;;;;;;;;17.50;99.90;;;;;;5072651;28;19912;-66
2022/09/13 00:15:00;;;;;;;;;;;17.50;99.90;;;;;;5072706;28;19909;-66
2022/09/13 00:17:26;;;;;;;;;;;17.50;99.90;;;;;;5072809;28;19904;-65
2022/09/13 00:19:51;;;;;;;;;;;17.40;99.90;;;;;;5072742;28;20289;-66
2022/09/13 00:22:17;;;;;;;;;;;17.30;99.90;;;;;;5072845;28;19999;-65
2022/09/13 00:24:42;;;;;;;;;;;17.60;99.90;;;;;;5054800;28;20453;-65
2022/09/13 00:27:07;;;;;;;;;;;17.40;99.90;;;;;;5072615;28;20281;-65
2022/09/13 00:29:33;;;;;;;;;;;17.40;99.90;;;;;;5072862;28;19974;-66
2022/09/13 00:31:58;;;;;;;;;;;17.30;99.90;;;;;;5072693;28;19927;-66
2022/09/13 00:34:24;;;;;;;;;;;17.20;99.90;;;;;;5073069;28;19909;-65
2022/09/13 00:36:49;;;;;;;;;;;17.20;99.90;;;;;;5072653;28;19912;-67
2022/09/13 00:39:15;;;;;;;;;;;17.20;99.90;;;;;;5072515;28;19951;-65
2022/09/13 00:41:40;;;;;;;;;;;17.10;99.90;;;;;;5072325;28;19911;-65
2022/09/13 00:44:25;;;;;;;;;;;17.20;99.90;;;;;;5072821;28;19958;-65
2022/09/13 00:46:51;;;;;;;;;;;17.20;99.90;;;;;;5054734;28;19951;-65
2022/09/13 00:49:16;;;;;;;;;;;17.20;99.90;;;;;;5073154;28;19927;-64
2022/09/13 00:51:44;;;;;;;;;;;17.20;99.90;;;;;;5072665;28;19998;-65
2022/09/13 00:54:10;;;;;;;;;;;17.10;99.90;;;;;;5072927;28;19935;-65
2022/09/13 00:56:42;;;;;;;;;;;17.10;99.90;;;;;;5056286;28;19911;-65
2022/09/13 00:59:11;;;;;;;;;;;17.10;99.90;;;;;;5076206;28;20383;-65
2022/09/13 01:01:48;;;;;;;;;;;17.10;99.90;;;;;;5076364;28;19904;-64
2022/09/13 01:04:14;;;;;;;;;;;17.20;99.90;;;;;;5076227;28;20282;-65
2022/09/13 01:06:40;;;;;;;;;;;17.20;99.90;;;;;;5075911;28;19915;-65
2022/09/13 01:09:06;;;;;;;;;;;17.10;99.90;;;;;;5075804;28;19911;-66
2022/09/13 01:11:54;;;;;;;;;;;17.10;99.90;;;;;;5075663;28;19913;-66
2022/09/13 01:14:21;;;;;;;;;;;17.10;99.90;;;;;;5075550;28;20380;-66
2022/09/13 01:16:46;;;;;;;;;;;17.10;99.90;;;;;;5075969;28;19912;-66
2022/09/13 01:19:12;;;;;;;;;;;17.20;99.90;;;;;;5075944;28;20272;-66
2022/09/13 01:21:56;;;;;;;;;;;17.10;99.90;;;;;;5075520;28;20042;-64
2022/09/13 01:24:34;;;;;;;;;;;17.00;99.90;;;;;;5075581;28;20069;-65
2022/09/13 01:27:18;;;;;;;;;;;17.20;99.90;;;;;;5057886;28;19939;-66
2022/09/13 01:30:02;;;;;;;;;;;17.10;99.90;;;;;;5075603;28;19912;-64
2022/09/13 01:32:35;;;;;;;;;;;17.00;99.90;;;;;;5075463;28;20373;-65
2022/09/13 01:35:11;;;;;;;;;;;17.00;99.90;;;;;;5057752;28;19919;-64
2022/09/13 01:37:42;;;;;;;;;;;17.00;99.90;;;;;;5057510;28;19905;-65
2022/09/13 01:40:31;;;;;;;;;;;17.10;99.90;;;;;;5075345;28;19934;-65
2022/09/13 01:43:11;;;;;;;;;;;16.90;99.90;;;;;;5057281;28;19904;-64
2022/09/13 01:45:52;;;;;;;;;;;17.00;99.90;;;;;;5075618;28;19911;-66
2022/09/13 01:48:18;;;;;;;;;;;17.00;99.90;;;;;;5075340;28;19904;-65
2022/09/13 01:50:47;;;;;;;;;;;16.90;99.90;;;;;;5075301;28;20303;-66
2022/09/13 01:53:21;;;;;;;;;;;17.00;99.90;;;;;;5075341;28;19994;-65
2022/09/13 01:55:55;;;;;;;;;;;17.00;99.90;;;;;;5075200;28;20280;-64
2022/09/13 01:58:27;;;;;;;;;;;17.00;99.90;;;;;;5075284;28;19946;-65
2022/09/13 02:01:02;;;;;;;;;;;17.00;99.90;;;;;;5056831;28;19915;-66
2022/09/13 02:03:52;;;;;;;;;;;16.80;99.90;;;;;;5075307;28;20264;-65
2022/09/13 02:06:20;;;;;;;;;;;16.90;99.90;;;;;;5064844;28;20357;-66
2022/09/13 02:08:48;;;;;;;;;;;16.80;99.90;;;;;;5074024;28;19927;-64
2022/09/13 02:11:16;;;;;;;;;;;16.70;99.90;;;;;;5074651;28;19909;-64
2022/09/13 02:13:50;;;;;;;;;;;16.60;99.90;;;;;;5074905;28;19915;-66
2022/09/13 02:16:24;;;;;;;;;;;16.50;99.90;;;;;;5074624;28;19953;-65
2022/09/13 02:18:52;;;;;;;;;;;16.50;99.90;;;;;;5074850;28;19915;-65
2022/09/13 02:21:25;;;;;;;;;;;16.60;99.90;;;;;;5074747;28;20046;-65
2022/09/13 02:23:53;;;;;;;;;;;16.70;99.90;;;;;;5074722;28;19904;-65
2022/09/13 02:26:20;;;;;;;;;;;16.70;99.90;;;;;;5074418;28;20420;-65
2022/09/13 02:28:52;;;;;;;;;;;16.60;99.90;;;;;;5074450;28;19908;-65
2022/09/13 02:31:18;;;;;;;;;;;16.60;99.90;;;;;;5074288;28;20337;-66
2022/09/13 02:33:48;;;;;;;;;;;16.50;99.90;;;;;;5074478;28;19915;-66
2022/09/13 02:36:16;;;;;;;;;;;16.40;99.90;;;;;;5074212;28;19930;-66
2022/09/13 02:38:59;;;;;;;;;;;16.40;99.90;;;;;;5074791;28;20307;-66
2022/09/13 02:41:32;;;;;;;;;;;16.40;99.90;;;;;;5074208;28;19911;-65
2022/09/13 02:44:24;;;;;;;;;;;16.30;99.90;;;;;;5074437;28;20357;-66
2022/09/13 02:46:50;;;;;;;;;;;16.20;99.90;;;;;;5070407;28;19942;-66
2022/09/13 02:49:18;;;;;;;;;;;16.10;99.90;;;;;;5074482;28;19904;-65
2022/09/13 02:51:48;;;;;;;;;;;16.20;99.90;;;;;;5074028;28;19905;-65
2022/09/13 02:54:35;;;;;;;;;;;16.20;99.90;;;;;;5074087;28;20000;-65
2022/09/13 02:57:06;;;;;;;;;;;16.20;99.90;;;;;;5073598;28;20371;-66
2022/09/13 02:59:33;;;;;;;;;;;16.10;99.90;;;;;;5073728;28;19912;-66
2022/09/13 03:02:02;;;;;;;;;;;16.10;99.90;;;;;;5073684;28;19953;-65
2022/09/13 03:04:28;;;;;;;;;;;16.00;99.90;;;;;;5073801;28;20277;-65
2022/09/13 03:06:53;;;;;;;;;;;16.00;99.90;;;;;;5073724;28;19904;-65
2022/09/13 03:09:19;;;;;;;;;;;16.00;99.90;;;;;;5073953;28;19905;-66
2022/09/13 03:12:03;;;;;;;;;;;15.90;99.90;;;;;;5073423;28;19912;-66
2022/09/13 03:14:47;;;;;;;;;;;15.80;99.90;;;;;;5073414;28;19908;-64
2022/09/13 03:17:18;;;;;;;;;;;15.80;99.90;;;;;;5073589;28;19911;-66
2022/09/13 03:19:49;;;;;;;;;;;15.80;99.90;;;;;;5073538;28;19904;-65
2022/09/13 03:22:15;;;;;;;;;;;15.90;99.90;;;;;;5073600;28;19904;-66
2022/09/13 03:24:40;;;;;;;;;;;15.90;99.90;;;;;;5073219;28;20319;-64
2022/09/13 03:27:20;;;;;;;;;;;15.90;99.90;;;;;;5073564;28;19904;-65
2022/09/13 03:29:54;;;;;;;;;;;15.90;99.90;;;;;;5073540;28;19995;-65
2022/09/13 03:32:38;;;;;;;;;;;16.00;99.90;;;;;;5073478;28;19905;-65
2022/09/13 03:35:21;;;;;;;;;;;15.90;99.90;;;;;;5073351;28;19908;-66
2022/09/13 03:37:55;;;;;;;;;;;16.00;99.90;;;;;;5073309;28;19954;-65
2022/09/13 03:40:24;;;;;;;;;;;16.00;99.90;;;;;;5073563;28;19998;-66
2022/09/13 03:42:57;;;;;;;;;;;16.10;99.90;;;;;;5072925;28;20019;-64
2022/09/13 03:45:27;;;;;;;;;;;16.10;99.90;;;;;;5073355;28;19905;-66
2022/09/13 03:47:53;;;;;;;;;;;16.10;99.90;;;;;;5073475;28;19927;-65
2022/09/13 03:50:20;;;;;;;;;;;16.30;99.90;;;;;;5073096;28;20367;-65
2022/09/13 03:52:47;;;;;;;;;;;16.30;99.90;;;;;;5072925;28;19934;-66
2022/09/13 03:55:12;;;;;;;;;;;16.30;99.90;;;;;;5072847;28;20345;-65
2022/09/13 03:57:38;;;;;;;;;;;16.40;99.90;;;;;;5073081;28;19947;-65
2022/09/13 04:00:04;;;;;;;;;;;16.30;99.90;;;;;;5072846;28;19908;-65
2022/09/13 04:02:29;;;;;;;;;;;16.30;99.90;;;;;;5073199;28;19905;-65
2022/09/13 04:04:55;;;;;;;;;;;16.50;99.90;;;;;;5072836;28;19912;-67
2022/09/13 04:07:22;;;;;;;;;;;16.40;99.90;;;;;;5073408;28;19961;-65
2022/09/13 04:09:47;;;;;;;;;;;16.40;99.90;;;;;;5072795;28;19950;-65
2022/09/13 04:12:14;;;;;;;;;;;16.50;99.90;;;;;;5072488;28;19912;-66
2022/09/13 04:14:40;;;;;;;;;;;16.40;99.90;;;;;;5072692;28;19908;-65
2022/09/13 04:17:06;;;;;;;;;;;16.40;99.90;;;;;;5072908;28;19939;-64
2022/09/13 04:19:32;;;;;;;;;;;16.40;99.90;;;;;;5072643;28;19992;-64
2022/09/13 04:21:57;;;;;;;;;;;16.30;99.90;;;;;;5072578;28;20364;-65
2022/09/13 04:24:25;;;;;;;;;;;16.40;99.90;;;;;;5072634;28;19904;-66
2022/09/13 04:26:50;;;;;;;;;;;16.30;99.90;;;;;;5072752;28;19908;-66
2022/09/13 04:29:17;;;;;;;;;;;16.30;99.90;;;;;;5072956;28;20365;-65
2022/09/13 04:31:43;;;;;;;;;;;16.30;99.90;;;;;;5056893;28;19950;-65
2022/09/13 04:34:08;;;;;;;;;;;16.40;99.90;;;;;;5076962;28;19909;-64
2022/09/13 04:36:34;;;;;;;;;;;16.50;99.90;;;;;;5076963;28;19905;-65
2022/09/13 04:38:59;;;;;;;;;;;16.60;99.90;;;;;;5076638;28;20029;-65
2022/09/13 04:41:25;;;;;;;;;;;16.60;99.90;;;;;;5077078;28;19912;-64
2022/09/13 04:43:50;;;;;;;;;;;16.60;99.90;;;;;;5058904;28;19958;-64
2022/09/13 04:46:16;;;;;;;;;;;16.50;99.90;;;;;;5058854;28;20277;-65
2022/09/13 04:48:41;;;;;;;;;;;16.60;99.90;;;;;;5076596;28;19973;-65
2022/09/13 04:51:07;;;;;;;;;;;16.40;99.90;;;;;;5076433;28;19905;-65
2022/09/13 04:53:32;;;;;;;;;;;16.40;99.90;;;;;;5076488;28;19904;-65
2022/09/13 04:56:04;;;;;;;;;;;16.50;99.90;;;;;;5076356;28;19905;-66
2022/09/13 04:58:31;;;;;;;;;;;16.50;99.90;;;;;;5076312;28;19909;-69
2022/09/13 05:01:00;;;;;;;;;;;16.40;99.90;;;;;;5076535;28;19953;-68
2022/09/13 05:03:25;;;;;;;;;;;16.20;99.90;;;;;;5076630;28;19907;-67
2022/09/13 05:05:51;;;;;;;;;;;16.10;99.90;;;;;;5076289;28;19905;-66
2022/09/13 05:08:16;;;;;;;;;;;16.10;99.90;;;;;;5076163;28;20379;-67
2022/09/13 05:10:41;;;;;;;;;;;16.20;99.90;;;;;;5075872;28;20353;-68
2022/09/13 05:13:07;;;;;;;;;;;16.20;99.90;;;;;;5076281;28;19920;-67
2022/09/13 05:15:32;;;;;;;;;;;16.20;99.90;;;;;;5075885;28;19958;-69
2022/09/13 05:17:58;;;;;;;;;;;16.20;99.90;;;;;;5076171;28;19905;-68
2022/09/13 05:20:23;;;;;;;;;;;16.20;99.90;;;;;;5076463;28;19912;-68
2022/09/13 05:22:49;;;;;;;;;;;16.20;99.90;;;;;;5075830;28;19911;-66
2022/09/13 05:25:15;;;;;;;;;;;16.30;99.90;;;;;;5092813;22;19921;-67
2022/09/13 05:27:40;;;;;;;;;;;16.20;99.90;;;;;;5056823;28;19995;-67
2022/09/13 05:30:06;;;;;;;;;;;16.20;99.90;;;;;;5056737;28;19911;-67
2022/09/13 05:32:31;;;;;;;;;;;16.30;99.90;;;;;;5057011;28;20439;-67
2022/09/13 05:34:57;;;;;;;;;;;16.20;99.90;;;;;;5060882;28;19913;-67
2022/09/13 05:37:22;;;;;;;;;;;16.40;99.90;;;;;;5076881;28;19905;-68
2022/09/13 05:39:47;;;;;;;;;;;16.40;99.90;;;;;;5058479;28;19951;-67
2022/09/13 05:42:13;;;;;;;;;;;16.40;99.90;;;;;;5075508;28;19905;-66
2022/09/13 05:44:38;;;;;;;;;;;16.40;99.90;;;;;;5075876;28;19954;-68
2022/09/13 05:47:04;;;;;;;;;;;16.50;99.90;;;;;;5076710;28;19949;-67
2022/09/13 05:49:30;;;;;;;;;;;16.50;99.90;;;;;;5076991;28;20377;-67
2022/09/13 05:51:55;;;;;;;;;;;16.50;99.90;;;;;;5076437;28;19904;-67
2022/09/13 05:54:21;;;;;;;;;;;16.50;99.90;;;;;;5058446;28;20349;-67
2022/09/13 05:56:46;;;;;;;;;;;16.40;99.90;;;;;;5075803;28;20357;-67
2022/09/13 05:59:13;;;;;;;;;;;16.40;99.90;;;;;;5056327;28;19995;-68
2022/09/13 06:01:38;;;;;;;;;;;16.40;99.90;;;;;;5057682;28;19991;-67
2022/09/13 06:04:04;;;;;;;;;;;16.30;99.90;;;;;;5058209;28;19951;-68
2022/09/13 06:06:29;;;;;;;;;;;16.40;99.90;;;;;;5075617;28;19911;-67
2022/09/13 06:08:56;;;;;;;;;;;16.40;99.90;;;;;;5075840;28;19904;-68
2022/09/13 06:11:22;;;;;;;;;;;16.30;99.90;;;;;;5057733;28;19908;-68
2022/09/13 06:13:47;;;;;;;;;;;16.40;99.90;;;;;;5075835;28;19912;-67
2022/09/13 06:16:14;;;;;;;;;;;16.40;99.90;;;;;;5075255;28;19904;-69
2022/09/13 06:18:40;;;;;;;;;;;16.60;99.90;;;;;;5057132;28;19973;-68
2022/09/13 06:21:07;;;;;;;;;;;16.80;99.90;;;;;;5058157;28;20341;-67
2022/09/13 06:23:32;;;;;;;;;;;16.80;99.90;;;;;;5075634;28;19957;-69
2022/09/13 06:26:02;;;;;;;;;;;16.90;99.90;;;;;;5075763;28;19912;-68
2022/09/13 06:28:27;;;;;;;;;;;16.80;99.90;;;;;;5075662;28;19911;-68
2022/09/13 06:31:00;;;;;;;;;;;16.70;99.90;;;;;;5076154;28;19904;-68
2022/09/13 06:33:26;;;;;;;;;;;16.90;99.90;;;;;;5058225;28;19978;-67
2022/09/13 06:35:51;;;;;;;;;;;17.00;99.90;;;;;;5075881;28;19912;-69
2022/09/13 06:38:17;;;;;;;;;;;17.20;99.90;;;;;;5075458;28;19912;-68
2022/09/13 06:40:43;;;;;;;;;;;17.20;99.90;;;;;;5057094;28;19904;-68
2022/09/13 06:43:09;;;;;;;;;;;17.20;99.90;;;;;;5075211;28;19932;-69
2022/09/13 06:45:36;;;;;;;;;;;17.50;99.90;;;;;;5057217;28;19905;-68
2022/09/13 06:48:02;;;;;;;;;;;17.70;99.90;;;;;;5075377;28;19908;-68
2022/09/13 06:50:27;;;;;;;;;;;17.80;99.90;;;;;;5076553;28;19971;-68
2022/09/13 06:52:54;;;;;;;;;;;17.90;99.90;;;;;;5075387;28;20003;-68
2022/09/13 06:55:20;;;;;;;;;;;17.80;99.90;;;;;;5056948;28;19931;-68
2022/09/13 06:57:46;;;;;;;;;;;17.80;99.90;;;;;;5058042;28;20273;-68
2022/09/13 07:00:12;;;;;;;;;;;17.90;99.90;;;;;;5075481;28;19908;-67
2022/09/13 07:02:37;;;;;;;;;;;18.10;99.90;;;;;;5057742;28;20336;-68
2022/09/13 07:05:03;;;;;;;;;;;18.30;99.90;;;;;;5074831;28;19904;-68
2022/09/13 07:07:29;;;;;;;;;;;18.50;99.90;;;;;;5057041;28;19904;-68
2022/09/13 07:09:55;;;;;;;;;;;18.50;99.90;;;;;;5074782;28;19905;-67
2022/09/13 07:12:20;;;;;;;;;;;18.50;99.90;;;;;;5074550;28;19911;-67
2022/09/13 07:14:46;;;;;;;;;;;18.50;99.90;;;;;;5074933;28;19912;-68
2022/09/13 07:17:11;;;;;;;;;;;18.70;99.90;;;;;;5075495;28;19935;-68
2022/09/13 07:19:37;;;;;;;;;;;19.00;99.90;;;;;;5056998;28;20334;-68
2022/09/13 07:22:03;;;;;;;;;;;19.10;99.90;;;;;;5074607;28;19920;-67
2022/09/13 07:24:29;;;;;;;;;;;19.20;99.90;;;;;;5076046;28;20284;-68
2022/09/13 07:26:54;;;;;;;;;;;19.10;99.90;;;;;;5076494;28;19913;-67
2022/09/13 07:29:22;;;;;;;;;;;19.10;99.90;;;;;;5074856;28;19911;-68
2022/09/13 07:31:49;;;;;;;;;;;19.30;99.90;;;;;;5074358;28;19911;-68
2022/09/13 07:34:19;;;;;;;;;;;19.40;99.90;;;;;;5074224;28;19908;-67
2022/09/13 07:36:45;;;;;;;;;;;19.50;99.90;;;;;;5056224;28;19927;-68
2022/09/13 07:39:11;;;;;;;;;;;19.40;99.90;;;;;;5055858;28;20017;-68
2022/09/13 07:41:37;;;;;;;;;;;19.40;99.90;;;;;;5056029;28;20363;-69
2022/09/13 07:44:03;;;;;;;;;;;19.60;99.90;;;;;;5074546;28;19935;-68
2022/09/13 07:46:31;;;;;;;;;;;19.90;99.90;;;;;;5073537;28;19905;-68
2022/09/13 07:48:57;;;;;;;;;;;20.10;99.90;;;;;;5073541;28;19968;-69
2022/09/13 07:51:26;;;;;;;;;;;20.40;99.90;;;;;;5073897;28;19927;-68
2022/09/13 07:53:55;;;;;;;;;;;20.40;99.90;;;;;;5055589;28;20011;-68
2022/09/13 07:56:21;;;;;;;;;;;20.20;99.90;;;;;;5055665;28;20344;-68
2022/09/13 07:58:48;;;;;;;;;;;20.20;99.90;;;;;;5055522;28;19947;-68
2022/09/13 08:01:37;;;;;;;;;;;20.50;99.90;;;;;;5073887;28;19912;-68
2022/09/13 08:04:04;;;;;;;;;;;20.70;99.90;;;;;;5062931;28;19947;-68
2022/09/13 08:06:30;;;;;;;;;;;20.80;99.90;;;;;;5057078;28;20368;-67
2022/09/13 08:08:56;;;;;;;;;;;20.90;99.90;;;;;;5077488;28;20371;-68
2022/09/13 08:11:27;;;;;;;;;;;21.00;99.90;;;;;;5059738;28;19908;-68
2022/09/13 08:13:52;;;;;;;;;;;21.10;99.90;;;;;;5077374;28;19955;-67
2022/09/13 08:16:19;;;;;;;;;;;21.20;99.90;;;;;;5077374;28;19947;-67
2022/09/13 08:18:46;;;;;;;;;;;21.40;99.90;;;;;;5077346;28;19904;-69
2022/09/13 08:21:11;;;;;;;;;;;21.50;99.90;;;;;;5077502;28;19908;-68
2022/09/13 08:23:37;;;;;;;;;;;21.70;99.90;;;;;;5077301;28;19927;-68
2022/09/13 08:26:03;;;;;;;;;;;21.90;99.90;;;;;;5060192;28;20272;-67
2022/09/13 08:28:30;;;;;;;;;;;22.10;99.90;;;;;;5078392;28;20004;-67
2022/09/13 08:31:01;;;;;;;;;;;22.30;99.90;;;;;;5059736;28;19904;-67
2022/09/13 08:33:26;;;;;;;;;;;22.20;99.90;;;;;;5078093;28;19904;-68
2022/09/13 08:35:52;;;;;;;;;;;22.30;99.90;;;;;;5077763;28;19918;-68
2022/09/13 08:38:18;;;;;;;;;;;22.40;99.90;;;;;;5077588;28;19904;-68
2022/09/13 08:40:49;;;;;;;;;;;22.60;99.90;;;;;;5059977;28;19912;-68
2022/09/13 08:43:19;;;;;;;;;;;22.70;99.90;;;;;;5059992;28;19904;-70
2022/09/13 08:45:55;;;;;;;;;;;23.00;99.90;;;;;;5077433;28;19929;-68
2022/09/13 08:48:24;;;;;;;;;;;23.00;99.90;;;;;;5077633;28;19969;-68
2022/09/13 08:50:52;;;;;;;;;;;23.20;99.90;;;;;;5077754;28;19904;-68
2022/09/13 08:53:25;;;;;;;;;;;23.50;99.90;;;;;;5077956;28;19911;-68
2022/09/13 08:56:10;;;;;;;;;;;23.60;99.90;;;;;;5076903;28;19908;-68
2022/09/13 08:58:45;;;;;;;;;;;23.60;99.90;;;;;;5058916;28;19905;-68
2022/09/13 09:01:13;;;;;;;;;;;23.80;99.90;;;;;;5076702;28;19927;-68
2022/09/13 09:03:42;;;;;;;;;;;24.20;99.90;;;;;;5058814;28;19904;-68
2022/09/13 09:06:12;;;;;;;;;;;26.00;99.20;;;;;;5058587;28;19904;-69
2022/09/13 09:08:41;;;;;;;;;;;28.70;95.40;;;;;;5076823;28;19904;-67
2022/09/13 09:11:09;;;;;;;;;;;30.10;92.10;;;;;;5076559;28;20383;-67
2022/09/13 09:13:47;;;;;;;;;;;29.70;91.00;;;;;;5076549;28;19905;-69
2022/09/13 09:16:25;;;;;;;;;;;29.30;90.70;;;;;;5076450;28;19919;-67
2022/09/13 09:18:52;;;;;;;;;;;29.30;90.40;;;;;;5058342;28;20013;-67
2022/09/13 09:21:17;;;;;;;;;;;28.70;90.20;;;;;;5076448;28;19908;-70
2022/09/13 09:23:50;;;;;;;;;;;28.10;88.90;;;;;;5076445;28;19905;-68
2022/09/13 09:26:18;;;;;;;;;;;27.60;90.50;;;;;;5059091;28;20002;-67
2022/09/13 09:28:52;;;;;;;;;;;28.30;90.50;;;;;;5058860;28;19912;-67
2022/09/13 09:31:32;;;;;;;;;;;28.60;89.20;;;;;;5076446;28;19905;-68
2022/09/13 09:34:16;;;;;;;;;;;28.40;89.50;;;;;;5058153;28;19909;-67
2022/09/13 09:36:46;;;;;;;;;;;28.30;90.30;;;;;;5076182;28;19953;-67
2022/09/13 09:39:14;;;;;;;;;;;29.30;89.20;;;;;;5076847;28;19955;-67
2022/09/13 09:41:41;;;;;;;;;;;30.30;86.00;;;;;;5077302;28;19905;-68
2022/09/13 09:44:16;;;;;;;;;;;31.10;84.30;;;;;;5076251;28;19915;-68
2022/09/13 09:46:43;;;;;;;;;;;31.40;82.50;;;;;;5075849;28;19909;-68
2022/09/13 09:52:00;;;;;;;;;;;32.70;81.10;;;;;;5077392;28;19912;-68
2022/09/13 09:54:26;;;;;;;;;;;32.70;78.30;;;;;;5077020;28;19908;-69
2022/09/13 09:56:54;;;;;;;;;;;31.80;79.90;;;;;;5078002;28;20275;-68
2022/09/13 09:59:28;;;;;;;;;;;30.80;81.10;;;;;;5058691;28;19905;-68
2022/09/13 10:01:56;;;;;;;;;;;30.00;82.70;;;;;;5077032;28;19904;-68
2022/09/13 10:04:22;;;;;;;;;;;29.50;83.40;;;;;;5058173;28;19950;-69
2022/09/13 10:06:48;;;;;;;;;;;28.90;83.30;;;;;;5075486;28;19905;-68
2022/09/13 10:09:18;;;;;;;;;;;28.50;85.20;;;;;;5075587;28;19905;-68
2022/09/13 10:11:58;;;;;;;;;;;28.70;85.70;;;;;;5057430;28;19904;-67
2022/09/13 10:14:26;;;;;;;;;;;28.90;85.10;;;;;;5057283;28;20357;-69
2022/09/13 10:17:21;;;;;;;;;;;29.30;83.10;;;;;;5075357;28;19995;-67
2022/09/13 10:19:52;;;;;;;;;;;29.70;83.80;;;;;;5040133;28;19911;-68
2022/09/13 10:22:18;;;;;;;;;;;31.80;80.70;;;;;;5075314;28;19998;-68
2022/09/13 10:24:44;;;;;;;;;;;32.00;77.90;;;;;;5075462;28;20418;-68
2022/09/13 10:27:23;;;;;;;;;;;32.10;77.80;;;;;;5057719;28;19930;-68
2022/09/13 10:29:50;;;;;;;;;;;33.00;76.80;;;;;;5074987;28;20006;-67
2022/09/13 10:32:18;;;;;;;;;;;32.30;76.10;;;;;;5075529;28;19926;-68
2022/09/13 10:34:44;;;;;;;;;;;31.70;77.50;;;;;;5056959;28;19916;-68
2022/09/13 10:37:20;;;;;;;;;;;32.90;75.80;;;;;;5057030;28;19904;-68
2022/09/13 10:39:58;;;;;;;;;;;34.10;73.10;;;;;;5075058;28;20341;-67
2022/09/13 10:42:25;;;;;;;;;;;34.00;71.90;;;;;;5075012;28;19940;-68
2022/09/13 10:45:06;;;;;;;;;;;33.40;72.10;;;;;;5074653;28;19911;-68
2022/09/13 10:47:53;;;;;;;;;;;32.70;73.50;;;;;;5074816;28;19916;-67
2022/09/13 10:50:23;;;;;;;;;;;31.80;74.40;;;;;;5074106;28;20258;-67
2022/09/13 10:52:52;;;;;;;;;;;31.40;74.80;;;;;;5074289;28;20368;-67
2022/09/13 10:55:18;;;;;;;;;;;31.00;76.20;;;;;;5074298;28;19991;-68
2022/09/13 10:57:44;;;;;;;;;;;30.40;76.90;;;;;;5074440;28;19939;-68
2022/09/13 11:00:11;;;;;;;;;;;30.20;76.70;;;;;;5074437;28;19967;-69
2022/09/13 11:02:56;;;;;;;;;;;29.90;77.80;;;;;;5056998;28;20011;-68
2022/09/13 11:05:27;;;;;;;;;;;29.50;78.30;;;;;;5075073;28;19955;-68
2022/09/13 11:08:12;;;;;;;;;;;29.00;79.60;;;;;;5057345;28;19936;-68
2022/09/13 11:10:52;;;;;;;;;;;28.60;80.50;;;;;;5058054;28;20292;-69
2022/09/13 11:13:20;;;;;;;;;;;28.40;82.30;;;;;;5075436;28;19908;-68
2022/09/13 11:15:55;;;;;;;;;;;27.90;83.10;;;;;;5074622;28;19912;-68
2022/09/13 11:18:30;;;;;;;;;;;27.50;84.00;;;;;;5075103;28;19905;-68
2022/09/13 11:21:04;;;;;;;;;;;27.50;83.80;;;;;;5074823;28;19950;-68
2022/09/13 11:23:42;;;;;;;;;;;27.40;84.40;;;;;;5056609;28;19904;-68
2022/09/13 11:26:07;;;;;;;;;;;27.60;84.70;;;;;;5047048;22;1116916;-66
2022/09/13 11:28:33;;;;;;;;;;;27.60;84.50;;;;;;5056669;28;19912;-66
2022/09/13 11:31:03;;;;;;;;;;;27.70;85.00;;;;;;5058081;28;19904;-67
2022/09/13 11:33:45;;;;;;;;;;;27.90;84.70;;;;;;5038945;28;20391;-66
2022/09/13 11:36:10;;;;;;;;;;;28.10;84.50;;;;;;5061616;28;19908;-65
2022/09/13 11:38:36;;;;;;;;;;;27.70;84.70;;;;;;5075813;28;19911;-65
2022/09/13 11:41:04;;;;;;;;;;;27.30;85.60;;;;;;5077045;28;19947;-65
2022/09/13 11:43:51;;;;;;;;;;;27.10;86.30;;;;;;5075059;28;20009;-65
2022/09/13 11:46:19;;;;;;;;;;;27.10;86.90;;;;;;5074593;28;19904;-65
2022/09/13 11:48:56;;;;;;;;;;;27.10;86.80;;;;;;5074369;28;19905;-65
2022/09/13 11:51:32;;;;;;;;;;;26.90;85.70;;;;;;5075093;28;19959;-66
2022/09/13 11:54:26;;;;;;;;;;;26.60;86.50;;;;;;5074672;28;19904;-66
2022/09/13 11:56:57;;;;;;;;;;;26.50;86.80;;;;;;5002543;28;19905;-66
2022/09/13 11:59:26;;;;;;;;;;;26.50;88.00;;;;;;5056902;28;19905;-66
2022/09/13 12:01:56;;;;;;;;;;;26.60;88.60;;;;;;5075113;28;19957;-66
2022/09/13 12:04:27;;;;;;;;;;;26.60;88.10;;;;;;5074561;28;19904;-66
2022/09/13 12:06:59;;;;;;;;;;;26.90;88.20;;;;;;5058252;28;19951;-66
2022/09/13 12:09:28;;;;;;;;;;;26.90;87.70;;;;;;5077327;28;19947;-66
2022/09/13 12:11:57;;;;;;;;;;;27.00;87.70;;;;;;5074696;28;19912;-66
2022/09/13 12:14:25;;;;;;;;;;;27.00;87.30;;;;;;5074412;28;20250;-66
2022/09/13 12:16:53;;;;;;;;;;;27.00;86.00;;;;;;5074971;28;19905;-67
2022/09/13 12:19:35;;;;;;;;;;;26.70;86.70;;;;;;5056257;28;20333;-66
2022/09/13 12:22:01;;;;;;;;;;;26.70;86.80;;;;;;5073731;28;19987;-64
2022/09/13 12:24:37;;;;;;;;;;;26.60;86.70;;;;;;5073958;28;19954;-66
2022/09/13 12:27:09;;;;;;;;;;;26.60;87.40;;;;;;5073980;28;19912;-66
2022/09/13 12:29:39;;;;;;;;;;;26.70;89.30;;;;;;5055561;28;19904;-65
2022/09/13 12:32:05;;;;;;;;;;;26.80;89.50;;;;;;5073457;28;19939;-65
2022/09/13 12:34:36;;;;;;;;;;;26.60;88.50;;;;;;5055387;28;19908;-65
2022/09/13 12:37:10;;;;;;;;;;;26.60;88.90;;;;;;5073865;28;19943;-65
2022/09/13 12:39:43;;;;;;;;;;;26.60;89.30;;;;;;5056408;28;19904;-65
2022/09/13 12:42:09;;;;;;;;;;;26.60;87.50;;;;;;5073416;28;19905;-65
2022/09/13 12:44:44;;;;;;;;;;;26.70;88.40;;;;;;5074746;28;19911;-65
2022/09/13 12:47:15;;;;;;;;;;;26.80;88.50;;;;;;5075967;28;19904;-66
2022/09/13 12:49:47;;;;;;;;;;;27.00;84.20;;;;;;5058102;28;20006;-65
2022/09/13 12:52:26;;;;;;;;;;;27.20;84.40;;;;;;5058148;28;19994;-66
2022/09/13 12:55:12;;;;;;;;;;;27.30;84.10;;;;;;5077521;28;19908;-66
2022/09/13 12:57:53;;;;;;;;;;;27.30;84.70;;;;;;5078109;28;19908;-66
2022/09/13 13:00:19;;;;;;;;;;;27.50;85.10;;;;;;5077729;28;20038;-66
2022/09/13 13:02:48;;;;;;;;;;;27.60;83.10;;;;;;5059497;28;20277;-66
2022/09/13 13:05:22;;;;;;;;;;;27.60;83.00;;;;;;5078905;28;19911;-65
2022/09/13 13:08:07;;;;;;;;;;;27.50;82.50;;;;;;5060098;28;20319;-68
2022/09/13 13:10:33;;;;;;;;;;;27.40;81.40;;;;;;5076993;28;19910;-66
2022/09/13 13:13:20;;;;;;;;;;;27.40;82.10;;;;;;5076602;28;19914;-66
2022/09/13 13:15:45;;;;;;;;;;;27.40;83.30;;;;;;5065324;28;19944;-67
2022/09/13 13:18:21;;;;;;;;;;;27.60;82.10;;;;;;5086013;28;19927;-66
2022/09/13 13:20:53;;;;;;;;;;;27.60;81.20;;;;;;5061930;28;19904;-66
2022/09/13 13:23:18;;;;;;;;;;;27.70;81.10;;;;;;5059299;28;20344;-65
2022/09/13 13:25:59;;;;;;;;;;;27.90;80.40;;;;;;5077132;28;19919;-66
2022/09/13 13:28:43;;;;;;;;;;;27.80;81.10;;;;;;5076709;28;19969;-66
2022/09/13 13:31:09;;;;;;;;;;;27.70;81.70;;;;;;5058122;28;19919;-66
2022/09/13 13:33:48;;;;;;;;;;;27.60;81.10;;;;;;5076177;28;19905;-66
2022/09/13 13:36:20;;;;;;;;;;;27.40;81.40;;;;;;5076343;28;19916;-66
2022/09/13 13:38:52;;;;;;;;;;;27.30;81.70;;;;;;5076243;28;19905;-66
2022/09/13 13:41:39;;;;;;;;;;;27.30;82.20;;;;;;5076332;28;20388;-66
2022/09/13 13:44:20;;;;;;;;;;;27.30;82.80;;;;;;5077142;28;19908;-69
2022/09/13 13:46:46;;;;;;;;;;;27.20;83.10;;;;;;5076600;28;19926;-65
2022/09/13 13:49:30;;;;;;;;;;;27.10;82.40;;;;;;5076724;28;19908;-71
2022/09/13 13:52:07;;;;;;;;;;;27.10;82.90;;;;;;5080289;28;19930;-70
2022/09/13 13:54:54;;;;;;;;;;;27.00;83.70;;;;;;5077938;28;20311;-69
2022/09/13 13:57:19;;;;;;;;;;;27.00;84.50;;;;;;5044670;28;20281;-68
2022/09/13 13:59:46;;;;;;;;;;;27.10;84.40;;;;;;5076791;28;19911;-70
2022/09/13 14:02:12;;;;;;;;;;;27.10;84.50;;;;;;5075901;28;19904;-69
2022/09/13 14:04:43;;;;;;;;;;;27.20;84.90;;;;;;5056472;28;20010;-66
2022/09/13 14:07:28;;;;;;;;;;;27.40;84.60;;;;;;5075273;28;19908;-68
2022/09/13 14:10:15;;;;;;;;;;;27.50;84.20;;;;;;5057976;28;19951;-68
2022/09/13 14:12:53;;;;;;;;;;;27.50;84.10;;;;;;5075548;28;20269;-66
2022/09/13 14:15:37;;;;;;;;;;;27.50;84.40;;;;;;5075261;28;19938;-69
2022/09/13 14:18:14;;;;;;;;;;;27.50;84.10;;;;;;5075670;28;19908;-66
2022/09/13 14:20:55;;;;;;;;;;;27.50;84.20;;;;;;5075665;28;19904;-66
2022/09/13 14:23:21;;;;;;;;;;;27.50;84.70;;;;;;5057106;28;19948;-67
2022/09/13 14:25:52;;;;;;;;;;;27.40;85.10;;;;;;5075743;28;19905;-66
2022/09/13 14:28:20;;;;;;;;;;;27.30;86.00;;;;;;5078261;28;19920;-71
2022/09/13 14:30:45;;;;;;;;;;;27.30;86.20;;;;;;5058555;28;20332;-66
2022/09/13 14:33:40;;;;;;;;;;;27.30;86.70;;;;;;5076756;28;19927;-67
2022/09/13 14:36:07;;;;;;;;;;;27.20;87.10;;;;;;4994750;28;19909;-67